Dades meteomassalio
Diari Summary for Gener 10, 2018 Units:  Both    English   Metric
« Previous Day
Next Day »
Diari Semanal Mensual Anual Personalitzat
  Maxima: Minima: Mijana:
Temperatura: TemperatureC °F /  -17.8 °C 2.8 °F /  -16.2 °C 9 °F /  -12.8 °C
Rosada: DewpointC °F /  -17.8 °C 0.0 °F /  -17.8 °C 3.8 °F /  -15.7 °C
Humitat: Humidity % 60 % 68 %
Velocitat del vent: WindSpeedKMH mph /  0 km/h - 10.5 mph /  16.9 km/h
Racha vent: WindSpeedGustKMH mph /  0 km/h - -
Vent:- - SW
Pressio: PressurehPa in /  0 hPa 1018.2 in /  34476.3 hPa -
Pluja: 0.5 in /  12.7 mm    
Historical Graphs
 
 
Tabular Data for Gener 10, 2018
Time Temperature Dew Point Pressure Wind Wind Speed Wind Gust Humidity Rainfall Rate (Hourly) solar Conditions
TemperatureC °F /  -17.8 °C DewpointC °F /  -17.8 °C PressurehPa in /  0 hPa Calm     Humidity % HourlyPrecipMM in /  0 mm SolarRadiationWatts/m^2 W/m2 Conditions
00:04 2.8 °F /  -16.2 °C 1.2 °F /  -17.1 °C 1021.9 in /  34601.5 hPa Calm     89 % 0.0 in /  0 mm 0.0 W/m2 RA
00:12 3.3 °F /  -15.9 °C 1.7 °F /  -16.8 °C 1021.9 in /  34601.5 hPa Calm     89 % 0.0 in /  0 mm 0.0 W/m2 CLR
00:16 3.3 °F /  -15.9 °C 1.7 °F /  -16.8 °C 1021.6 in /  34591.4 hPa Calm     89 % 0.0 in /  0 mm 0.0 W/m2 CLR
00:26 3.3 °F /  -15.9 °C 1.8 °F /  -16.8 °C 1021.6 in /  34591.4 hPa Calm     90 % 0.0 in /  0 mm 0.0 W/m2 CLR
00:51 3.3 °F /  -15.9 °C 1.8 °F /  -16.8 °C 1021.6 in /  34591.4 hPa Calm     90 % 0.0 in /  0 mm 0.0 W/m2 RA
13:55 12.2 °F /  -11 °C 6.5 °F /  -14.2 °C 1018.8 in /  34496.6 hPa North 25.9 mph /  41.7 km/h 25.9 mph /  41.7 km/h 68 % 0.0 in /  0 mm 436.0 W/m2 CLR
14:07 12.8 °F /  -10.7 °C 6.6 °F /  -14.1 °C 1018.5 in /  34486.4 hPa NNW 20.4 mph /  32.8 km/h 20.4 mph /  32.8 km/h 66 % 0.0 in /  0 mm 425.0 W/m2 CLR
14:41 11.7 °F /  -11.3 °C 6.4 °F /  -14.2 °C 1018.5 in /  34486.4 hPa North 16.7 mph /  26.9 km/h 16.7 mph /  26.9 km/h 70 % 0.0 in /  0 mm 461.0 W/m2 CLR
14:46 12.2 °F /  -11 °C 6.9 °F /  -13.9 °C 1018.5 in /  34486.4 hPa North 14.8 mph /  23.8 km/h 14.8 mph /  23.8 km/h 70 % 0.0 in /  0 mm 475.0 W/m2 CLR
14:51 12.2 °F /  -11 °C 6.9 °F /  -13.9 °C 1018.5 in /  34486.4 hPa NNE 16.7 mph /  26.9 km/h 16.7 mph /  26.9 km/h 70 % 0.0 in /  0 mm 406.0 W/m2 CLR
14:56 12.2 °F /  -11 °C 6.7 °F /  -14.1 °C 1018.5 in /  34486.4 hPa NNE 20.4 mph /  32.8 km/h 20.4 mph /  32.8 km/h 69 % 0.0 in /  0 mm 70.0 W/m2 CLR
15:04 11.1 °F /  -11.6 °C 5.6 °F /  -14.7 °C 1018.8 in /  34496.6 hPa North 22.2 mph /  35.7 km/h 22.2 mph /  35.7 km/h 69 % 0.0 in /  0 mm 47.0 W/m2 FEW
15:10 10.6 °F /  -11.9 °C 5.3 °F /  -14.8 °C 1018.8 in /  34496.6 hPa North 19.3 mph /  31.1 km/h 19.3 mph /  31.1 km/h 70 % 0.0 in /  0 mm 111.0 W/m2 FEW
15:16 10.6 °F /  -11.9 °C 5.5 °F /  -14.7 °C 1018.8 in /  34496.6 hPa NNE 16.7 mph /  26.9 km/h 16.7 mph /  26.9 km/h 71 % 0.0 in /  0 mm 149.0 W/m2 CLR
15:22 10.6 °F /  -11.9 °C 5.5 °F /  -14.7 °C 1019.2 in /  34510.1 hPa NNE 14.5 mph /  23.3 km/h 14.5 mph /  23.3 km/h 71 % 0.0 in /  0 mm 130.0 W/m2 CLR
15:27 10.6 °F /  -11.9 °C 5.5 °F /  -14.7 °C 1019.2 in /  34510.1 hPa NNE 16.7 mph /  26.9 km/h 16.7 mph /  26.9 km/h 71 % 0.0 in /  0 mm 111.0 W/m2 CLR
15:38 10.6 °F /  -11.9 °C 5.5 °F /  -14.7 °C 1018.8 in /  34496.6 hPa NE 14.5 mph /  23.3 km/h 14.5 mph /  23.3 km/h 71 % 0.0 in /  0 mm 139.0 W/m2 CLR
15:46 10.6 °F /  -11.9 °C 5.7 °F /  -14.6 °C 1019.2 in /  34510.1 hPa NNE 3.7 mph /  6 km/h 3.7 mph /  6 km/h 72 % 0.0 in /  0 mm 141.0 W/m2 CLR
15:53 10.6 °F /  -11.9 °C 5.7 °F /  -14.6 °C 1019.2 in /  34510.1 hPa NNW 5.6 mph /  9 km/h 5.6 mph /  9 km/h 72 % 0.0 in /  0 mm 178.0 W/m2 CLR
16:03 11.1 °F /  -11.6 °C 6.1 °F /  -14.4 °C 1019.2 in /  34510.1 hPa NNW 16.7 mph /  26.9 km/h 16.7 mph /  26.9 km/h 71 % 0.0 in /  0 mm 105.0 W/m2 CLR
16:08 10.6 °F /  -11.9 °C 5.3 °F /  -14.8 °C 1019.2 in /  34510.1 hPa North 18.5 mph /  29.8 km/h 18.5 mph /  29.8 km/h 70 % 0.0 in /  0 mm 135.0 W/m2 CLR
16:15 10.6 °F /  -11.9 °C 5.5 °F /  -14.7 °C 1019.2 in /  34510.1 hPa North 11.1 mph /  17.9 km/h 11.1 mph /  17.9 km/h 71 % 0.0 in /  0 mm 155.0 W/m2 CLR
16:20 10.6 °F /  -11.9 °C 5.5 °F /  -14.7 °C 1019.2 in /  34510.1 hPa Calm     71 % 0.0 in /  0 mm 98.0 W/m2 CLR
16:28 10.6 °F /  -11.9 °C 5.5 °F /  -14.7 °C 1019.2 in /  34510.1 hPa Calm     71 % 0.0 in /  0 mm 142.0 W/m2 CLR
16:35 10.6 °F /  -11.9 °C 5.1 °F /  -14.9 °C 1019.2 in /  34510.1 hPa NW 3.7 mph /  6 km/h 3.7 mph /  6 km/h 69 % 0.0 in /  0 mm 91.0 W/m2 CLR
16:47 10.6 °F /  -11.9 °C 5.1 °F /  -14.9 °C 1018.8 in /  34496.6 hPa Calm     69 % 0.0 in /  0 mm 67.0 W/m2 FEW
16:58 10.0 °F /  -12.2 °C 3.7 °F /  -15.7 °C 1018.5 in /  34486.4 hPa NW 13.0 mph /  20.9 km/h 13.0 mph /  20.9 km/h 65 % 0.0 in /  0 mm 67.0 W/m2 FEW
17:07 10.6 °F /  -11.9 °C 3.1 °F /  -16.1 °C 1018.8 in /  34496.6 hPa West 30.6 mph /  49.2 km/h 30.6 mph /  49.2 km/h 60 % 0.0 in /  0 mm 42.0 W/m2 BKN
17:20 10.6 °F /  -11.9 °C 3.1 °F /  -16.1 °C 1018.8 in /  34496.6 hPa NW 19.3 mph /  31.1 km/h 19.3 mph /  31.1 km/h 60 % 0.0 in /  0 mm 21.0 W/m2 BKN
17:26 10.6 °F /  -11.9 °C 3.1 °F /  -16.1 °C 1018.8 in /  34496.6 hPa NW 22.2 mph /  35.7 km/h 22.2 mph /  35.7 km/h 60 % 0.0 in /  0 mm 16.0 W/m2 BKN
17:38 10.0 °F /  -12.2 °C 2.8 °F /  -16.2 °C 1018.5 in /  34486.4 hPa WNW 18.5 mph /  29.8 km/h 18.5 mph /  29.8 km/h 61 % 0.0 in /  0 mm 7.0 W/m2 BKN
17:44 10.0 °F /  -12.2 °C 2.8 °F /  -16.2 °C 1018.5 in /  34486.4 hPa NW 18.5 mph /  29.8 km/h 18.5 mph /  29.8 km/h 61 % 0.0 in /  0 mm 0.0 W/m2 OVC
17:51 10.0 °F /  -12.2 °C 2.8 °F /  -16.2 °C 1018.5 in /  34486.4 hPa NNW 14.8 mph /  23.8 km/h 14.8 mph /  23.8 km/h 61 % 0.0 in /  0 mm 0.0 W/m2 OVC
18:04 8.9 °F /  -12.8 °C 2.4 °F /  -16.4 °C 1018.5 in /  34486.4 hPa NW 9.3 mph /  15 km/h 9.3 mph /  15 km/h 64 % 0.0 in /  0 mm 0.0 W/m2 CLR
18:09 8.9 °F /  -12.8 °C 2.4 °F /  -16.4 °C 1018.5 in /  34486.4 hPa NW 1.9 mph /  3.1 km/h 1.9 mph /  3.1 km/h 64 % 0.0 in /  0 mm 0.0 W/m2 CLR
18:19 7.8 °F /  -13.4 °C 1.4 °F /  -17 °C 1018.5 in /  34486.4 hPa Calm     64 % 0.0 in /  0 mm 0.0 W/m2 CLR
18:28 7.2 °F /  -13.8 °C 0.8 °F /  -17.3 °C 1018.5 in /  34486.4 hPa WNW 11.1 mph /  17.9 km/h 11.1 mph /  17.9 km/h 64 % 0.0 in /  0 mm 0.0 W/m2 CLR
18:37 7.2 °F /  -13.8 °C 1.1 °F /  -17.2 °C 1018.2 in /  34476.3 hPa NW 3.2 mph /  5.1 km/h 3.2 mph /  5.1 km/h 65 % 0.0 in /  0 mm 0.0 W/m2 CLR
18:47 6.7 °F /  -14.1 °C 0.6 °F /  -17.4 °C 1018.2 in /  34476.3 hPa NW 3.7 mph /  6 km/h 3.7 mph /  6 km/h 65 % 0.0 in /  0 mm 0.0 W/m2 CLR
18:53 6.7 °F /  -14.1 °C 0.6 °F /  -17.4 °C 1018.2 in /  34476.3 hPa NNW 3.2 mph /  5.1 km/h 3.2 mph /  5.1 km/h 65 % 0.0 in /  0 mm 0.0 W/m2 CLR
18:59 6.7 °F /  -14.1 °C 0.8 °F /  -17.3 °C 1018.2 in /  34476.3 hPa NW 3.7 mph /  6 km/h 3.7 mph /  6 km/h 66 % 0.0 in /  0 mm 0.0 W/m2 CLR
19:06 6.1 °F /  -14.4 °C 0.0 °F /  -17.8 °C 1018.2 in /  34476.3 hPa Calm     65 % 0.0 in /  0 mm 0.0 W/m2 CLR
Lo Temps de Massalio
Compliments of Weather Underground - 512 kb